Brainerd Lakes Regional Airport
KBRD : now visible

Airfield :











YOU CAN JOIN US ON...

 
LOGIN :

Register | Disclaimer

   EN    FR    IT 

 









Legend :    VFR   Marginal VFR   IFR   Intensive IFR   Very Intensive IFR
Visi :
Ceiling :
>= 8 km
>= 3000ft
5 to 8 km
1000 to 3000 ft
1500m to 5 km
500 to 1000 ft
800 to 1500m
200 to 500 ft
< 800m
< 200 ft
Symbols :   Thunderstorms  Fog  Heavy snow  Heavy precipitations  Wind > 20 kt







- Airport Elevation : 1232 ft


KBRD - Brainerd Lakes Regional

CURRENT METAR :
  • 162053Z AUTO 16011KT 10SM CLR 29/19 A2994 RMK AO2 SLP133 T02890194 56008

EXPIRED METARs :
  • 161953Z AUTO 16010G20KT 10SM CLR 28/19 A2994 RMK AO2 SLP135 T02830189
  • 161853Z AUTO 16014G22KT 10SM CLR 29/19 A2995 RMK AO2 SLP138 T02940189

TAF KBRD
Valid from the 16 at 18:00 until the 17 at 18:00 UTC


161738Z 1618/1718 17012G24KT P6SM FEW250
FM170500 17009KT P6SM BKN250 WS020/20035KT
FM171100 16008G15KT P6SM BKN080
FM171400 17013G23KT P6SM VCSH BKN024
FM171600 17014G24KT P6SM -RA BKN035
No reported NOTAMs for that airfield.



MET'MAP, your aeronautical weather chart ! - Copyright ORBIFLY December 2007 - Disclaimer

ORBIFLY MET'MAP TEAM :

Programming & Development : Alexandra Zaïnal
Concept & Development : Baudouin d'Aumeries
Co-Development & Prog : Marc-Olivier Méhu
Technical & hardware support : Manuel Goepfert

Contact : metmap@orbifly.com




SOURCES & CREDITS :

   NOAA       Earth
Advisory